createdAt,value
2022-07-25T00:01:22.466Z,24.50
2022-07-25T00:03:51.951Z,24.43
2022-07-25T00:06:21.710Z,24.38
2022-07-25T00:08:49.838Z,24.34
2022-07-25T00:11:19.183Z,24.30
2022-07-25T00:13:47.527Z,24.30
2022-07-25T00:16:15.745Z,24.33
2022-07-25T00:18:43.978Z,24.30
2022-07-25T00:21:12.390Z,24.24
2022-07-25T00:23:42.162Z,24.21
2022-07-25T00:26:10.301Z,24.13
2022-07-25T00:28:38.599Z,24.13
2022-07-25T00:31:07.133Z,24.08
2022-07-25T00:33:35.412Z,23.98
2022-07-25T00:36:03.611Z,23.88
2022-07-25T00:38:32.706Z,23.84
2022-07-25T00:41:02.209Z,23.85
2022-07-25T00:43:30.367Z,23.80
2022-07-25T00:45:59.739Z,23.82
2022-07-25T00:48:29.352Z,23.84
2022-07-25T00:50:58.044Z,23.86
2022-07-25T00:53:27.093Z,23.87
2022-07-25T00:55:56.271Z,23.82
2022-07-25T00:58:25.870Z,23.78
2022-07-25T01:00:54.462Z,23.69
2022-07-25T01:03:22.903Z,23.64
2022-07-25T01:05:53.946Z,23.61
2022-07-25T01:08:23.650Z,23.56
2022-07-25T01:10:51.934Z,23.56
2022-07-25T01:13:20.909Z,23.61
2022-07-25T01:15:50.666Z,23.59
2022-07-25T01:18:19.235Z,23.48
2022-07-25T01:20:49.152Z,23.41
2022-07-25T01:23:17.301Z,23.39
2022-07-25T01:25:45.911Z,23.30
2022-07-25T01:28:14.171Z,23.23
2022-07-25T01:30:42.333Z,23.15
2022-07-25T01:33:10.549Z,23.13
2022-07-25T01:35:43.298Z,23.06
2022-07-25T01:38:13.961Z,23.04
2022-07-25T01:40:42.495Z,22.96
2022-07-25T01:43:11.029Z,22.89
2022-07-25T01:45:39.507Z,22.85
2022-07-25T01:48:08.233Z,22.81
2022-07-25T01:50:36.470Z,22.82
2022-07-25T01:53:05.382Z,22.80
2022-07-25T01:55:35.379Z,22.72
2022-07-25T01:58:05.311Z,22.72
2022-07-25T02:00:35.719Z,22.70
2022-07-25T02:03:21.591Z,22.71
2022-07-25T02:05:49.685Z,22.72
2022-07-25T02:08:17.863Z,22.75
2022-07-25T02:10:47.703Z,22.75
2022-07-25T02:13:15.951Z,22.79
2022-07-25T02:15:44.226Z,22.71
2022-07-25T02:18:12.450Z,22.70
2022-07-25T02:20:40.588Z,22.69
2022-07-25T02:23:08.809Z,22.64
2022-07-25T02:25:37.062Z,22.60
2022-07-25T02:28:06.694Z,22.56
2022-07-25T02:30:35.157Z,22.52
2022-07-25T02:33:03.465Z,22.47
2022-07-25T02:35:31.638Z,22.47
2022-07-25T02:37:59.863Z,22.45
2022-07-25T02:40:28.153Z,22.43
2022-07-25T02:42:56.330Z,22.38
2022-07-25T02:45:26.101Z,22.40
2022-07-25T02:47:54.406Z,22.36
2022-07-25T02:50:22.624Z,22.37
2022-07-25T02:52:50.801Z,22.23
2022-07-25T02:55:19.044Z,22.15
2022-07-25T02:57:47.190Z,22.15
2022-07-25T03:00:17.086Z,22.15
2022-07-25T03:02:46.994Z,22.20
2022-07-25T03:05:16.933Z,22.23
2022-07-25T03:07:46.135Z,22.23
2022-07-25T03:10:16.403Z,22.23
2022-07-25T03:12:45.921Z,22.15
2022-07-25T03:15:14.946Z,22.12
2022-07-25T03:17:43.554Z,22.08
2022-07-25T03:20:13.533Z,22.05
2022-07-25T03:22:42.670Z,21.93
2022-07-25T03:25:15.858Z,21.91
2022-07-25T03:27:50.803Z,21.87
2022-07-25T03:30:19.130Z,21.83
2022-07-25T03:32:47.828Z,21.80
2022-07-25T03:35:17.457Z,21.85
2022-07-25T03:37:45.721Z,21.90
2022-07-25T03:40:15.877Z,21.88
2022-07-25T03:42:44.474Z,21.84
2022-07-25T03:45:12.681Z,21.87
2022-07-25T03:47:40.843Z,21.87
2022-07-25T03:50:09.645Z,21.89
2022-07-25T03:52:39.538Z,21.86
2022-07-25T03:55:09.232Z,21.86
2022-07-25T03:57:37.670Z,21.82
2022-07-25T04:00:08.520Z,21.82
2022-07-25T04:02:37.616Z,21.82
2022-07-25T04:05:06.913Z,21.92
2022-07-25T04:07:35.199Z,21.90
2022-07-25T04:10:05.175Z,21.95
2022-07-25T04:12:33.704Z,21.98
2022-07-25T04:15:02.236Z,22.01
2022-07-25T04:17:30.449Z,22.04
2022-07-25T04:19:58.869Z,22.06
2022-07-25T04:22:27.280Z,22.10
2022-07-25T04:24:55.433Z,22.11
2022-07-25T04:27:25.142Z,22.16
2022-07-25T04:29:53.329Z,22.23
2022-07-25T04:32:23.667Z,22.26
2022-07-25T04:34:52.840Z,22.30
2022-07-25T04:37:20.947Z,22.34
2022-07-25T04:39:49.293Z,22.42
2022-07-25T04:42:17.811Z,22.47
2022-07-25T04:44:47.290Z,22.52
2022-07-25T04:47:15.499Z,22.57
2022-07-25T04:49:43.731Z,22.60
2022-07-25T04:52:11.852Z,22.68
2022-07-25T04:54:40.077Z,22.77
2022-07-25T04:57:08.357Z,22.95
2022-07-25T04:59:36.500Z,23.24
2022-07-25T05:02:06.197Z,23.41
2022-07-25T05:04:35.029Z,23.39
2022-07-25T05:07:03.327Z,23.35
2022-07-25T05:09:31.481Z,23.33
2022-07-25T05:12:00.332Z,23.35
2022-07-25T05:14:28.567Z,23.41
2022-07-25T05:16:56.876Z,23.53
2022-07-25T05:19:27.118Z,23.60
2022-07-25T05:21:55.281Z,23.68
2022-07-25T05:24:23.574Z,23.66
2022-07-25T05:26:52.023Z,23.78
2022-07-25T05:29:20.362Z,23.81
2022-07-25T05:31:48.566Z,23.87
2022-07-25T05:34:16.761Z,23.95
2022-07-25T05:36:47.439Z,23.92
2022-07-25T05:39:15.736Z,24.03
2022-07-25T05:41:43.935Z,24.04
2022-07-25T05:44:12.345Z,24.10
2022-07-25T05:46:40.606Z,24.19
2022-07-25T05:49:09.108Z,24.23
2022-07-25T05:51:37.277Z,24.31
2022-07-25T05:54:07.579Z,24.28
2022-07-25T05:56:36.067Z,24.31
2022-07-25T05:59:04.273Z,24.36
2022-07-25T06:01:32.627Z,24.40
2022-07-25T06:04:00.825Z,24.38
2022-07-25T06:06:32.757Z,24.42
2022-07-25T06:09:00.966Z,24.35
2022-07-25T06:11:31.620Z,24.43
2022-07-25T06:14:00.440Z,24.40
2022-07-25T06:16:28.669Z,24.55
2022-07-25T06:18:56.929Z,24.64
2022-07-25T06:21:25.013Z,24.68
2022-07-25T06:23:53.275Z,24.73
2022-07-25T06:26:21.506Z,24.64
2022-07-25T06:28:51.095Z,24.80
2022-07-25T06:31:20.398Z,24.83
2022-07-25T06:33:48.615Z,24.88
2022-07-25T06:36:16.789Z,24.87
2022-07-25T06:38:45.040Z,24.91
2022-07-25T06:41:15.938Z,24.82
2022-07-25T06:43:44.360Z,24.97
2022-07-25T06:46:13.851Z,25.10
2022-07-25T06:48:42.138Z,25.17
2022-07-25T06:51:10.362Z,25.26
2022-07-25T06:53:38.568Z,25.24
2022-07-25T06:56:07.439Z,25.29
2022-07-25T06:58:35.679Z,25.33
2022-07-25T07:01:03.844Z,25.38
2022-07-25T07:03:38.284Z,25.42
2022-07-25T07:06:07.358Z,25.48
2022-07-25T07:08:35.580Z,25.50
2022-07-25T07:11:03.866Z,25.57
2022-07-25T07:13:32.206Z,25.57
2022-07-25T07:16:01.014Z,25.66
2022-07-25T07:18:29.209Z,25.74
2022-07-25T07:20:58.765Z,25.73
2022-07-25T07:23:27.363Z,25.67
2022-07-25T07:25:57.539Z,25.82
2022-07-25T07:28:25.791Z,25.95
2022-07-25T07:33:42.331Z,26.10
2022-07-25T07:36:12.157Z,26.04
2022-07-25T07:38:40.399Z,26.02
2022-07-25T07:41:09.215Z,26.08
2022-07-25T07:43:37.558Z,26.18
2022-07-25T07:46:05.854Z,26.28
2022-07-25T07:48:34.935Z,26.34
2022-07-25T07:51:03.744Z,26.47
2022-07-25T07:53:51.032Z,26.54
2022-07-25T07:56:20.107Z,26.64
2022-07-25T07:58:48.382Z,26.73
2022-07-25T08:01:16.698Z,26.72
2022-07-25T08:03:44.854Z,26.65
2022-07-25T08:06:13.104Z,26.69
2022-07-25T08:08:42.727Z,26.80
2022-07-25T08:11:10.907Z,26.80
2022-07-25T08:13:39.196Z,26.84
2022-07-25T08:16:08.983Z,26.93
2022-07-25T08:18:37.157Z,26.95
2022-07-25T08:21:07.218Z,27.06
2022-07-25T08:23:35.830Z,27.09
2022-07-25T08:26:05.753Z,27.15
2022-07-25T08:28:34.227Z,27.15
2022-07-25T08:31:02.442Z,27.24
2022-07-25T08:33:31.450Z,27.31
2022-07-25T08:36:00.195Z,27.42
2022-07-25T08:38:29.646Z,27.48
2022-07-25T08:40:58.948Z,27.37
2022-07-25T08:43:32.998Z,27.44
2022-07-25T08:46:03.005Z,27.43
2022-07-25T08:51:30.651Z,27.72
2022-07-25T08:53:59.163Z,27.65
2022-07-25T08:56:27.384Z,27.72
2022-07-25T08:58:59.004Z,27.65
2022-07-25T09:01:31.470Z,27.77
2022-07-25T09:04:03.999Z,27.93
2022-07-25T09:06:32.434Z,28.01
2022-07-25T09:09:04.738Z,28.06
2022-07-25T09:11:35.259Z,28.29
2022-07-25T09:14:08.463Z,28.36
2022-07-25T09:16:40.468Z,28.47
2022-07-25T09:19:14.557Z,28.50
2022-07-25T09:21:46.474Z,28.43
2022-07-25T09:24:17.067Z,28.42
2022-07-25T09:26:46.679Z,28.47
2022-07-25T09:29:20.890Z,28.55
2022-07-25T09:31:49.236Z,28.59
2022-07-25T09:34:32.307Z,28.66
2022-07-25T09:37:00.682Z,28.40
2022-07-25T09:39:46.132Z,28.59
2022-07-25T09:42:23.588Z,28.76
2022-07-25T09:45:05.783Z,28.90
2022-07-25T09:47:36.353Z,28.96
2022-07-25T09:50:05.357Z,28.92
2022-07-25T09:52:33.901Z,28.98
2022-07-25T09:55:04.594Z,29.08
2022-07-25T09:57:32.862Z,29.13
2022-07-25T10:00:03.120Z,29.14
2022-07-25T10:02:49.836Z,29.12
2022-07-25T10:05:28.854Z,29.11
2022-07-25T10:07:58.721Z,29.12
2022-07-25T10:10:28.944Z,29.19
2022-07-25T10:13:10.128Z,29.29
2022-07-25T10:15:45.922Z,29.49
2022-07-25T10:18:14.711Z,29.61
2022-07-25T10:20:43.975Z,29.64
2022-07-25T10:23:24.138Z,29.75
2022-07-25T10:26:03.476Z,29.75
2022-07-25T10:28:40.739Z,29.75
2022-07-25T10:31:25.141Z,29.83
2022-07-25T10:33:55.906Z,29.75
2022-07-25T10:36:25.120Z,29.91
2022-07-25T10:38:58.274Z,30.10
2022-07-25T10:41:30.036Z,30.08
2022-07-25T10:44:03.039Z,30.17
2022-07-25T10:46:36.105Z,30.32
2022-07-25T10:49:07.932Z,30.36
2022-07-25T10:51:41.846Z,30.44
2022-07-25T10:54:15.508Z,30.44
2022-07-25T10:56:53.942Z,30.22
2022-07-25T10:59:33.701Z,30.13
2022-07-25T11:02:04.397Z,30.19
2022-07-25T11:04:32.915Z,30.30
2022-07-25T11:07:09.780Z,30.44
2022-07-25T11:09:38.519Z,30.58
2022-07-25T11:12:07.613Z,30.76
2022-07-25T11:14:37.981Z,30.93
2022-07-25T11:17:15.911Z,30.82
2022-07-25T11:19:46.348Z,30.88
2022-07-25T11:22:14.611Z,31.09
2022-07-25T11:24:44.978Z,31.24
2022-07-25T11:27:23.769Z,31.28
2022-07-25T11:29:52.513Z,31.51
2022-07-25T11:32:22.120Z,31.41
2022-07-25T11:34:52.326Z,31.50
2022-07-25T11:37:21.514Z,31.57
2022-07-25T11:39:50.238Z,31.77
2022-07-25T11:42:20.376Z,32.12
2022-07-25T11:44:50.993Z,32.25
2022-07-25T11:47:28.938Z,32.20
2022-07-25T11:49:58.623Z,32.41
2022-07-25T11:52:29.921Z,32.46
2022-07-25T11:55:00.816Z,32.57
2022-07-25T11:57:31.210Z,32.37
2022-07-25T12:00:01.336Z,32.18
2022-07-25T12:02:38.474Z,32.46
2022-07-25T12:05:09.332Z,32.70
2022-07-25T12:07:41.810Z,32.83
2022-07-25T12:10:12.457Z,32.82
2022-07-25T12:12:50.577Z,32.90
2022-07-25T12:15:22.218Z,33.37
2022-07-25T12:17:52.803Z,33.72
2022-07-25T12:20:22.955Z,33.99
2022-07-25T12:22:52.656Z,33.83
2022-07-25T12:25:21.179Z,33.79
2022-07-25T12:27:49.664Z,34.11
2022-07-25T12:30:18.453Z,34.02
2022-07-25T12:32:46.808Z,33.68
2022-07-25T12:35:16.396Z,34.08
2022-07-25T12:37:45.535Z,34.12
2022-07-25T12:40:16.559Z,34.12
2022-07-25T12:42:45.817Z,34.30
2022-07-25T12:45:15.706Z,34.36
2022-07-25T12:47:44.415Z,34.67
2022-07-25T12:50:13.509Z,34.26
2022-07-25T12:52:43.866Z,34.44
2022-07-25T12:55:14.721Z,34.39
2022-07-25T12:57:44.031Z,34.88
2022-07-25T13:00:15.696Z,35.00
2022-07-25T13:02:44.142Z,34.31
2022-07-25T13:05:12.830Z,34.63
2022-07-25T13:07:42.565Z,35.16
2022-07-25T13:10:12.634Z,34.97
2022-07-25T13:12:40.844Z,35.46
2022-07-25T13:15:09.994Z,35.44
2022-07-25T13:17:38.483Z,35.76
2022-07-25T13:20:07.654Z,36.08
2022-07-25T13:22:35.863Z,35.69
2022-07-25T13:25:05.931Z,35.92
2022-07-25T13:27:34.178Z,36.29
2022-07-25T13:30:02.337Z,35.93
2022-07-25T13:32:31.858Z,35.92
2022-07-25T13:34:59.993Z,36.18
2022-07-25T13:37:28.312Z,36.33
2022-07-25T13:39:56.439Z,36.40
2022-07-25T13:42:26.155Z,36.27
2022-07-25T13:44:54.603Z,36.11
2022-07-25T13:47:25.743Z,36.53
2022-07-25T13:49:58.119Z,36.69
2022-07-25T13:52:26.323Z,36.91
2022-07-25T13:54:54.517Z,36.82
2022-07-25T13:57:22.652Z,36.89
2022-07-25T13:59:52.202Z,37.44
2022-07-25T14:02:20.457Z,37.66
2022-07-25T14:04:48.601Z,37.94
2022-07-25T14:07:16.806Z,37.53
2022-07-25T14:09:44.900Z,37.53
2022-07-25T14:12:13.017Z,38.11
2022-07-25T14:14:41.154Z,38.40
2022-07-25T14:17:10.772Z,38.09
2022-07-25T14:19:39.004Z,38.67
2022-07-25T14:22:07.251Z,38.39
2022-07-25T14:24:35.417Z,38.23
2022-07-25T14:27:04.086Z,38.13
2022-07-25T14:29:32.237Z,38.67
2022-07-25T14:32:00.589Z,39.12
2022-07-25T14:34:30.159Z,39.34
2022-07-25T14:36:58.371Z,39.38
2022-07-25T14:39:26.595Z,39.77
2022-07-25T14:41:54.771Z,39.94
2022-07-25T14:44:23.071Z,39.81
2022-07-25T14:46:51.348Z,38.67
2022-07-25T14:49:19.536Z,39.27
2022-07-25T14:51:49.539Z,39.11
2022-07-25T14:54:18.399Z,39.76
2022-07-25T14:56:46.636Z,39.22
2022-07-25T14:59:14.898Z,40.32
2022-07-25T15:01:43.019Z,40.44
2022-07-25T15:04:11.273Z,40.42
2022-07-25T15:06:39.589Z,40.47
2022-07-25T15:09:10.122Z,40.56
2022-07-25T15:11:38.678Z,41.53
2022-07-25T15:14:06.852Z,41.34
2022-07-25T15:16:35.080Z,41.80
2022-07-25T15:19:16.512Z,42.18
2022-07-25T15:21:45.553Z,41.91
2022-07-25T15:24:15.208Z,42.14
2022-07-25T15:26:43.677Z,41.79
2022-07-25T15:29:13.590Z,41.24
2022-07-25T15:31:41.884Z,41.54
2022-07-25T15:34:10.115Z,41.33
2022-07-25T15:36:38.222Z,41.26
2022-07-25T15:39:06.857Z,40.12
2022-07-25T15:41:37.218Z,41.01
2022-07-25T15:44:05.805Z,41.30
2022-07-25T15:46:34.361Z,41.48
2022-07-25T15:49:04.269Z,40.14
2022-07-25T15:51:32.700Z,40.26
2022-07-25T15:54:00.885Z,39.48
2022-07-25T15:56:31.911Z,37.47
2022-07-25T15:59:01.478Z,37.13
2022-07-25T16:01:29.807Z,36.52
2022-07-25T16:03:59.889Z,36.09
2022-07-25T16:06:30.077Z,36.03
2022-07-25T16:08:58.293Z,35.97
2022-07-25T16:11:26.449Z,35.46
2022-07-25T16:13:55.077Z,35.16
2022-07-25T16:16:25.795Z,35.08
2022-07-25T16:18:54.186Z,34.98
2022-07-25T16:21:22.514Z,34.98
2022-07-25T16:23:50.688Z,35.04
2022-07-25T16:26:18.799Z,34.90
2022-07-25T16:28:48.768Z,34.84
2022-07-25T16:31:17.780Z,34.94
2022-07-25T16:33:47.736Z,34.72
2022-07-25T16:36:16.078Z,34.50
2022-07-25T16:38:45.253Z,34.34
2022-07-25T16:41:13.734Z,34.39
2022-07-25T16:43:41.780Z,34.42
2022-07-25T16:46:10.656Z,34.14
2022-07-25T16:48:39.143Z,34.14
2022-07-25T16:51:08.895Z,34.16
2022-07-25T16:53:37.421Z,33.94
2022-07-25T16:56:06.542Z,33.85
2022-07-25T16:58:34.986Z,33.60
2022-07-25T17:01:03.174Z,33.49
2022-07-25T17:03:31.633Z,33.43
2022-07-25T17:05:59.813Z,33.46
2022-07-25T17:08:31.914Z,33.39
2022-07-25T17:11:00.346Z,33.33
2022-07-25T17:13:28.645Z,33.25
2022-07-25T17:15:56.895Z,33.31
2022-07-25T17:18:25.441Z,33.31
2022-07-25T17:20:54.684Z,33.23
2022-07-25T17:23:23.486Z,33.19
2022-07-25T17:25:53.591Z,33.19
2022-07-25T17:28:22.872Z,33.12
2022-07-25T17:30:51.603Z,33.04
2022-07-25T17:33:19.892Z,33.00
2022-07-25T17:35:48.105Z,32.96
2022-07-25T17:38:16.283Z,32.86
2022-07-25T17:40:44.409Z,32.80
2022-07-25T17:43:13.892Z,32.74
2022-07-25T17:45:42.344Z,32.70
2022-07-25T17:48:10.473Z,32.62
2022-07-25T17:50:38.685Z,32.40
2022-07-25T17:53:06.817Z,32.37
2022-07-25T17:55:38.791Z,32.37
2022-07-25T17:58:07.598Z,32.29
2022-07-25T18:00:37.096Z,32.21
2022-07-25T18:03:05.731Z,32.17
2022-07-25T18:05:34.419Z,32.19
2022-07-25T18:08:03.188Z,32.08
2022-07-25T18:10:31.942Z,31.96
2022-07-25T18:13:02.069Z,31.91
2022-07-25T18:15:30.567Z,31.87
2022-07-25T18:18:00.321Z,31.87
2022-07-25T18:20:29.247Z,31.73
2022-07-25T18:22:58.681Z,31.68
2022-07-25T18:25:27.408Z,31.50
2022-07-25T18:27:55.604Z,31.43
2022-07-25T18:30:28.875Z,31.31
2022-07-25T18:32:57.557Z,31.30
2022-07-25T18:35:27.083Z,31.27
2022-07-25T18:37:55.477Z,31.14
2022-07-25T18:40:23.621Z,31.09
2022-07-25T18:42:51.787Z,31.01
2022-07-25T18:45:21.109Z,30.97
2022-07-25T18:47:50.001Z,30.86
2022-07-25T18:50:20.358Z,30.84
2022-07-25T18:52:49.969Z,30.85
2022-07-25T18:55:18.085Z,30.80
2022-07-25T18:57:46.504Z,30.65
2022-07-25T19:00:15.159Z,30.46
2022-07-25T19:02:43.345Z,30.30
2022-07-25T19:05:11.740Z,30.11
2022-07-25T19:07:41.007Z,29.95
2022-07-25T19:10:11.492Z,29.84
2022-07-25T19:12:40.183Z,29.79
2022-07-25T19:15:09.474Z,29.68
2022-07-25T19:17:38.242Z,29.60
2022-07-25T19:20:07.529Z,29.42
2022-07-25T19:22:35.696Z,29.33
2022-07-25T19:25:07.569Z,29.25
2022-07-25T19:27:37.204Z,29.14
2022-07-25T19:30:07.072Z,29.05
2022-07-25T19:32:35.545Z,28.96
2022-07-25T19:35:03.778Z,28.90
2022-07-25T19:37:32.046Z,28.77
2022-07-25T19:40:00.469Z,28.75
2022-07-25T19:42:28.688Z,28.89
2022-07-25T19:44:58.407Z,28.92
2022-07-25T19:47:26.871Z,28.90
2022-07-25T19:49:55.043Z,28.88
2022-07-25T19:52:23.283Z,28.80
2022-07-25T19:54:51.409Z,28.70
2022-07-25T19:57:19.691Z,28.65
2022-07-25T19:59:47.757Z,28.59
2022-07-25T20:02:17.432Z,28.42
2022-07-25T20:04:45.752Z,28.36
2022-07-25T20:07:13.918Z,28.30
2022-07-25T20:09:42.038Z,28.29
2022-07-25T20:12:10.395Z,28.36
2022-07-25T20:14:38.705Z,28.42
2022-07-25T20:17:08.129Z,28.24
2022-07-25T20:19:44.567Z,28.13
2022-07-25T20:22:12.850Z,28.03
2022-07-25T20:24:40.941Z,28.04
2022-07-25T20:27:09.106Z,28.01
2022-07-25T20:29:37.272Z,28.03
2022-07-25T20:32:06.493Z,28.03
2022-07-25T20:34:34.808Z,27.87
2022-07-25T20:37:04.522Z,27.84
2022-07-25T20:39:32.963Z,27.80
2022-07-25T20:42:02.599Z,27.61
2022-07-25T20:44:30.948Z,27.52
2022-07-25T20:46:59.099Z,27.32
2022-07-25T20:49:27.462Z,27.02
2022-07-25T20:51:55.688Z,26.80
2022-07-25T20:54:25.289Z,26.71
2022-07-25T20:56:53.541Z,26.66
2022-07-25T20:59:21.621Z,26.56
2022-07-25T21:01:49.861Z,26.57
2022-07-25T21:04:19.048Z,26.73
2022-07-25T21:06:47.543Z,26.62
2022-07-25T21:09:16.642Z,26.39
2022-07-25T21:11:46.258Z,26.44
2022-07-25T21:14:14.553Z,26.27
2022-07-25T21:16:42.682Z,26.08
2022-07-25T21:19:11.272Z,26.18
2022-07-25T21:21:39.965Z,26.08
2022-07-25T21:24:11.887Z,26.23
2022-07-25T21:26:40.553Z,26.23
2022-07-25T21:29:11.330Z,26.23
2022-07-25T21:31:40.034Z,26.03
2022-07-25T21:34:08.259Z,26.03
2022-07-25T21:36:36.492Z,26.00
2022-07-25T21:39:05.324Z,26.08
2022-07-25T21:41:33.901Z,26.09
2022-07-25T21:44:02.059Z,26.00
2022-07-25T21:46:31.763Z,25.99
2022-07-25T21:49:17.154Z,25.96
2022-07-25T21:52:04.351Z,25.88
2022-07-25T21:54:32.533Z,25.83
2022-07-25T21:57:00.644Z,25.61
2022-07-25T21:59:28.786Z,25.50
2022-07-25T22:01:58.406Z,25.41
2022-07-25T22:04:26.616Z,25.34
2022-07-25T22:06:54.894Z,25.17
2022-07-25T22:09:23.252Z,25.15
2022-07-25T22:11:51.425Z,25.19
2022-07-25T22:14:19.610Z,25.20
2022-07-25T22:16:47.752Z,25.16
2022-07-25T22:19:21.948Z,25.15
2022-07-25T22:21:50.828Z,25.10
2022-07-25T22:24:18.962Z,25.04
2022-07-25T22:26:47.242Z,25.01
2022-07-25T22:29:15.341Z,24.79
2022-07-25T22:31:44.514Z,24.80
2022-07-25T22:34:12.737Z,24.88
2022-07-25T22:36:42.282Z,24.45
2022-07-25T22:39:11.897Z,24.38
2022-07-25T22:41:40.330Z,24.59
2022-07-25T22:44:08.549Z,24.53
2022-07-25T22:46:36.680Z,24.47
2022-07-25T22:49:05.474Z,24.27
2022-07-25T22:51:34.471Z,24.39
2022-07-25T22:54:04.114Z,24.45
2022-07-25T22:56:32.560Z,24.46
2022-07-25T22:59:00.746Z,24.38
2022-07-25T23:01:29.003Z,24.35
2022-07-25T23:03:57.091Z,24.25
2022-07-25T23:06:25.369Z,24.32
2022-07-25T23:08:53.606Z,24.29
2022-07-25T23:11:23.148Z,24.21
2022-07-25T23:13:51.397Z,24.23
2022-07-25T23:16:19.932Z,24.29
2022-07-25T23:18:48.280Z,24.29
2022-07-25T23:21:16.387Z,24.21
2022-07-25T23:23:44.625Z,24.29
2022-07-25T23:26:12.848Z,24.32
2022-07-25T23:28:42.476Z,24.31
2022-07-25T23:31:10.972Z,24.25
2022-07-25T23:33:39.171Z,24.19
2022-07-25T23:36:07.688Z,24.26
2022-07-25T23:38:35.785Z,24.23
2022-07-25T23:41:03.948Z,23.98
2022-07-25T23:43:57.481Z,23.83
2022-07-25T23:46:27.582Z,23.81
2022-07-25T23:48:56.330Z,23.74
2022-07-25T23:51:24.692Z,23.57
2022-07-25T23:53:52.814Z,23.40
2022-07-25T23:56:21.418Z,23.36
2022-07-25T23:58:50.253Z,23.40
